createdAt,value
2023-01-19T00:00:45.773Z,79.50
2023-01-19T00:05:48.300Z,77.54
2023-01-19T00:08:15.237Z,78.53
2023-01-19T00:10:44.070Z,77.94
2023-01-19T00:13:10.726Z,77.48
2023-01-19T00:15:37.258Z,77.57
2023-01-19T00:18:04.282Z,77.16
2023-01-19T00:20:35.708Z,78.80
2023-01-19T00:23:03.369Z,78.21
2023-01-19T00:25:29.984Z,79.88
2023-01-19T00:27:57.167Z,79.39
2023-01-19T00:30:23.815Z,78.93
2023-01-19T00:32:50.337Z,79.41
2023-01-19T00:35:17.129Z,79.95
2023-01-19T00:37:46.202Z,80.09
2023-01-19T00:40:14.295Z,80.22
2023-01-19T00:42:41.589Z,81.29
2023-01-19T00:45:10.080Z,82.07
2023-01-19T00:47:37.250Z,82.44
2023-01-19T00:50:04.104Z,82.79
2023-01-19T00:55:01.952Z,82.46
2023-01-19T00:57:29.708Z,81.40
2023-01-19T00:59:56.608Z,80.26
2023-01-19T01:02:23.348Z,80.10
2023-01-19T01:04:54.980Z,79.53
2023-01-19T01:07:22.491Z,80.07
2023-01-19T01:09:49.164Z,80.62
2023-01-19T01:12:15.944Z,78.71
2023-01-19T01:14:42.608Z,78.67
2023-01-19T01:19:42.695Z,77.61
2023-01-19T01:22:10.042Z,77.70
2023-01-19T01:24:36.802Z,77.95
2023-01-19T01:27:03.481Z,79.07
2023-01-19T01:29:30.053Z,78.66
2023-01-19T01:31:56.656Z,80.13
2023-01-19T01:34:23.247Z,80.37
2023-01-19T01:36:49.771Z,79.31
2023-01-19T01:39:16.349Z,78.87
2023-01-19T01:41:42.988Z,78.95
2023-01-19T01:44:50.226Z,79.93
2023-01-19T01:47:30.895Z,80.54
2023-01-19T01:50:17.979Z,80.50
2023-01-19T01:53:06.555Z,79.85
2023-01-19T01:58:15.602Z,79.08
2023-01-19T02:01:01.401Z,78.54
2023-01-19T02:03:28.564Z,78.01
2023-01-19T02:08:59.007Z,78.13
2023-01-19T02:11:44.069Z,76.71
2023-01-19T02:14:10.678Z,76.83
2023-01-19T02:16:38.002Z,76.79
2023-01-19T02:19:07.297Z,78.17
2023-01-19T02:21:56.651Z,77.88
2023-01-19T02:24:24.005Z,77.57
2023-01-19T02:26:51.322Z,77.27
2023-01-19T02:29:21.293Z,76.03
2023-01-19T02:31:48.047Z,76.52
2023-01-19T02:34:19.965Z,76.25
2023-01-19T02:37:02.246Z,75.68
2023-01-19T02:39:37.069Z,76.15
2023-01-19T02:42:08.806Z,77.24
2023-01-19T02:44:37.503Z,77.50
2023-01-19T02:47:04.304Z,77.67
2023-01-19T02:49:31.216Z,76.88
2023-01-19T02:51:58.868Z,77.50
2023-01-19T02:54:39.368Z,77.14
2023-01-19T02:57:22.279Z,76.97
2023-01-19T02:59:55.745Z,76.90
2023-01-19T03:03:02.445Z,76.50
2023-01-19T03:05:41.628Z,77.31
2023-01-19T03:08:33.166Z,77.45
2023-01-19T03:11:10.277Z,76.95
2023-01-19T03:14:02.858Z,76.84
2023-01-19T03:16:48.643Z,76.83
2023-01-19T03:19:21.542Z,76.66
2023-01-19T03:24:35.109Z,76.87
2023-01-19T03:27:25.476Z,76.83
2023-01-19T03:29:57.988Z,77.45
2023-01-19T03:32:30.822Z,77.26
2023-01-19T03:35:01.191Z,76.98
2023-01-19T03:40:01.376Z,77.13
2023-01-19T03:42:28.833Z,77.72
2023-01-19T03:44:56.656Z,77.94
2023-01-19T03:47:24.189Z,77.40
2023-01-19T03:49:53.368Z,78.33
2023-01-19T03:52:28.615Z,78.82
2023-01-19T03:54:55.574Z,78.11
2023-01-19T03:59:53.742Z,78.23
2023-01-19T04:02:20.373Z,78.58
2023-01-19T04:04:47.425Z,79.20
2023-01-19T04:07:14.104Z,79.14
2023-01-19T04:09:40.918Z,79.19
2023-01-19T04:12:07.811Z,78.87
2023-01-19T04:14:34.408Z,79.63
2023-01-19T04:17:00.988Z,79.16
2023-01-19T04:19:27.596Z,78.90
2023-01-19T04:21:55.482Z,78.40
2023-01-19T04:24:22.264Z,78.35
2023-01-19T04:26:51.896Z,77.98
2023-01-19T04:29:18.506Z,78.34
2023-01-19T04:31:45.069Z,78.37
2023-01-19T04:34:11.611Z,78.89
2023-01-19T04:36:38.146Z,78.52
2023-01-19T04:39:05.166Z,78.54
2023-01-19T04:41:32.016Z,78.79
2023-01-19T04:43:58.588Z,78.24
2023-01-19T04:46:25.337Z,78.46
2023-01-19T04:51:23.143Z,78.67
2023-01-19T04:53:49.705Z,78.06
2023-01-19T04:56:16.280Z,78.11
2023-01-19T04:58:42.828Z,78.35
2023-01-19T05:01:09.784Z,78.40
2023-01-19T05:03:36.651Z,77.95
2023-01-19T05:08:40.483Z,77.98
2023-01-19T05:11:07.182Z,78.15
2023-01-19T05:13:33.839Z,77.73
2023-01-19T05:16:00.941Z,78.13
2023-01-19T05:18:27.662Z,77.09
2023-01-19T05:20:54.212Z,77.23
2023-01-19T05:23:20.833Z,77.74
2023-01-19T05:25:47.678Z,77.59
2023-01-19T05:28:15.363Z,78.22
2023-01-19T05:30:41.934Z,78.30
2023-01-19T05:33:08.498Z,77.27
2023-01-19T05:35:36.479Z,77.88
2023-01-19T05:38:03.977Z,77.20
2023-01-19T05:40:30.625Z,77.19
2023-01-19T05:43:01.369Z,77.01
2023-01-19T05:45:28.602Z,76.71
2023-01-19T05:47:55.470Z,76.79
2023-01-19T05:50:22.388Z,77.02
2023-01-19T05:55:21.315Z,76.83
2023-01-19T05:57:47.901Z,77.31
2023-01-19T06:00:15.087Z,77.42
2023-01-19T06:05:12.878Z,77.04
2023-01-19T06:07:39.454Z,78.02
2023-01-19T06:10:06.546Z,78.42
2023-01-19T06:12:33.203Z,77.68
2023-01-19T06:14:59.768Z,77.93
2023-01-19T06:17:26.514Z,78.87
2023-01-19T06:19:53.077Z,79.84
2023-01-19T06:22:19.943Z,80.44
2023-01-19T06:24:46.630Z,80.47
2023-01-19T06:27:13.944Z,80.62
2023-01-19T06:29:41.229Z,80.66
2023-01-19T06:32:07.951Z,80.58
2023-01-19T06:34:34.494Z,80.10
2023-01-19T06:37:01.151Z,79.93
2023-01-19T06:39:27.741Z,79.41
2023-01-19T06:41:54.300Z,79.39
2023-01-19T06:44:20.860Z,80.02
2023-01-19T06:46:49.067Z,80.79
2023-01-19T06:49:15.909Z,80.62
2023-01-19T06:51:42.554Z,81.14
2023-01-19T06:56:40.573Z,80.13
2023-01-19T06:59:07.265Z,80.80
2023-01-19T07:01:34.475Z,80.54
2023-01-19T07:04:01.186Z,80.65
2023-01-19T07:06:27.965Z,81.40
2023-01-19T07:08:54.917Z,81.59
2023-01-19T07:11:29.561Z,81.29
2023-01-19T07:13:59.788Z,82.44
2023-01-19T07:16:26.774Z,82.15
2023-01-19T07:18:53.454Z,81.10
2023-01-19T07:21:20.078Z,81.60
2023-01-19T07:23:50.457Z,81.45
2023-01-19T07:26:20.014Z,80.10
2023-01-19T07:28:48.119Z,79.55
2023-01-19T07:31:15.797Z,80.43
2023-01-19T07:33:42.538Z,80.11
2023-01-19T07:36:09.470Z,79.55
2023-01-19T07:38:36.239Z,77.36
2023-01-19T07:41:06.285Z,77.68
2023-01-19T07:43:34.010Z,77.48
2023-01-19T07:46:02.246Z,77.03
2023-01-19T07:48:29.086Z,76.75
2023-01-19T07:51:11.067Z,76.48
2023-01-19T07:53:40.150Z,76.45
2023-01-19T07:56:07.840Z,76.02
2023-01-19T07:58:34.470Z,76.59
2023-01-19T08:01:01.290Z,77.22
2023-01-19T08:06:02.586Z,76.94
2023-01-19T08:08:33.245Z,77.24
2023-01-19T08:11:00.013Z,76.96
2023-01-19T08:13:27.225Z,76.88
2023-01-19T08:15:54.408Z,76.60
2023-01-19T08:18:21.655Z,76.33
2023-01-19T08:20:48.529Z,76.40
2023-01-19T08:23:15.307Z,76.33
2023-01-19T08:25:44.618Z,76.52
2023-01-19T08:28:13.588Z,75.80
2023-01-19T08:30:40.857Z,75.89
2023-01-19T08:33:08.406Z,76.07
2023-01-19T08:35:37.615Z,76.33
2023-01-19T08:40:39.621Z,75.75
2023-01-19T08:43:17.268Z,75.08
2023-01-19T08:45:49.252Z,74.58
2023-01-19T08:48:17.711Z,75.50
2023-01-19T08:53:25.691Z,73.55
2023-01-19T08:56:03.701Z,73.44
2023-01-19T08:58:30.214Z,73.57
2023-01-19T09:00:59.579Z,73.31
2023-01-19T09:03:26.265Z,72.73
2023-01-19T09:05:52.799Z,72.44
2023-01-19T09:08:19.402Z,73.01
2023-01-19T09:10:49.083Z,72.19
2023-01-19T09:13:16.472Z,72.35
2023-01-19T09:15:43.639Z,72.01
2023-01-19T09:18:13.834Z,71.85
2023-01-19T09:20:42.812Z,71.10
2023-01-19T09:23:11.185Z,70.40
2023-01-19T09:25:41.326Z,70.68
2023-01-19T09:28:09.832Z,69.94
2023-01-19T09:30:38.759Z,70.21
2023-01-19T09:33:07.566Z,69.33
2023-01-19T09:35:38.123Z,70.78
2023-01-19T09:38:07.513Z,70.41
2023-01-19T09:40:36.531Z,70.82
2023-01-19T09:43:26.159Z,70.62
2023-01-19T09:45:57.984Z,70.79
2023-01-19T09:48:40.600Z,69.45
2023-01-19T09:51:13.978Z,71.33
2023-01-19T09:53:59.047Z,72.33
2023-01-19T09:56:29.212Z,71.80
2023-01-19T09:58:55.914Z,71.18
2023-01-19T10:01:51.300Z,70.24
2023-01-19T10:04:40.516Z,71.53
2023-01-19T10:07:10.137Z,70.78
2023-01-19T10:09:51.495Z,71.21
2023-01-19T10:15:42.172Z,70.36
2023-01-19T10:18:31.560Z,70.86
2023-01-19T10:21:12.631Z,70.72
2023-01-19T10:24:17.538Z,71.20
2023-01-19T10:26:49.736Z,71.20
2023-01-19T10:29:28.171Z,71.23
2023-01-19T10:32:22.291Z,71.23
2023-01-19T10:34:50.474Z,70.65
2023-01-19T10:37:33.703Z,71.02
2023-01-19T10:40:09.417Z,71.10
2023-01-19T10:42:37.638Z,70.89
2023-01-19T10:45:14.594Z,70.21
2023-01-19T10:50:32.540Z,68.61
2023-01-19T10:53:05.988Z,76.66
2023-01-19T10:55:37.779Z,68.98
2023-01-19T10:58:05.992Z,64.13
2023-01-19T11:00:43.125Z,61.98
2023-01-19T11:03:23.611Z,58.56
2023-01-19T11:05:50.494Z,61.52
2023-01-19T11:08:24.013Z,63.53
2023-01-19T11:10:59.670Z,65.39
2023-01-19T11:13:26.683Z,65.39
2023-01-19T11:16:05.711Z,67.27
2023-01-19T11:18:37.603Z,66.42
2023-01-19T11:23:46.616Z,68.08
2023-01-19T11:31:37.125Z,68.42
2023-01-19T11:34:33.383Z,68.58
2023-01-19T11:37:04.692Z,68.96
2023-01-19T11:39:44.956Z,68.22
2023-01-19T11:42:13.181Z,67.83
2023-01-19T11:44:58.526Z,68.78
2023-01-19T11:47:35.743Z,67.75
2023-01-19T11:50:24.310Z,67.63
2023-01-19T11:53:04.614Z,67.68
2023-01-19T11:55:42.067Z,67.50
2023-01-19T11:58:16.173Z,67.76
2023-01-19T12:00:52.568Z,68.22
2023-01-19T12:03:33.070Z,68.57
2023-01-19T12:06:05.731Z,68.16
2023-01-19T12:08:43.514Z,67.64
2023-01-19T12:11:16.762Z,67.56
2023-01-19T12:13:45.365Z,68.46
2023-01-19T12:16:21.184Z,69.95
2023-01-19T12:19:03.491Z,67.62
2023-01-19T12:21:30.065Z,69.23
2023-01-19T12:24:23.283Z,68.14
2023-01-19T12:27:02.279Z,67.84
2023-01-19T12:29:33.898Z,70.20
2023-01-19T12:32:18.734Z,70.31
2023-01-19T12:34:54.443Z,70.91
2023-01-19T12:37:41.976Z,68.63
2023-01-19T12:40:22.015Z,69.38
2023-01-19T12:42:59.283Z,70.79
2023-01-19T12:45:34.216Z,71.04
2023-01-19T12:48:02.443Z,72.84
2023-01-19T12:50:37.912Z,73.23
2023-01-19T12:53:15.434Z,72.65
2023-01-19T12:55:46.854Z,72.92
2023-01-19T12:58:22.164Z,73.16
2023-01-19T13:00:50.769Z,74.59
2023-01-19T13:03:17.366Z,76.44
2023-01-19T13:05:43.946Z,75.02
2023-01-19T13:08:11.453Z,75.08
2023-01-19T13:11:00.002Z,75.43
2023-01-19T13:16:18.709Z,75.41
2023-01-19T13:18:56.121Z,75.12
2023-01-19T13:21:33.372Z,76.29
2023-01-19T13:24:02.380Z,76.31
2023-01-19T13:26:37.460Z,76.91
2023-01-19T13:29:22.771Z,77.43
2023-01-19T13:31:49.834Z,76.25
2023-01-19T13:34:20.001Z,76.92
2023-01-19T13:36:51.903Z,77.13
2023-01-19T13:39:29.319Z,77.43
2023-01-19T13:42:00.853Z,78.45
2023-01-19T13:44:37.334Z,77.77
2023-01-19T13:49:46.720Z,78.46
2023-01-19T13:52:21.196Z,77.34
2023-01-19T13:54:49.218Z,78.12
2023-01-19T13:57:29.729Z,78.86
2023-01-19T14:00:12.119Z,77.65
2023-01-19T14:02:40.267Z,77.13
2023-01-19T14:05:23.594Z,76.69
2023-01-19T14:11:02.568Z,76.70
2023-01-19T14:13:31.967Z,76.37
2023-01-19T14:16:15.039Z,76.03
2023-01-19T14:18:41.936Z,75.46
2023-01-19T14:21:13.898Z,76.52
2023-01-19T14:23:47.186Z,76.01
2023-01-19T14:26:56.314Z,76.09
2023-01-19T14:29:32.893Z,75.77
2023-01-19T14:32:20.497Z,76.24
2023-01-19T14:35:12.777Z,75.38
2023-01-19T14:37:47.678Z,76.33
2023-01-19T14:40:20.452Z,75.37
2023-01-19T14:42:55.382Z,75.81
2023-01-19T14:45:34.133Z,75.88
2023-01-19T14:48:04.112Z,74.70
2023-01-19T14:50:39.395Z,74.80
2023-01-19T14:53:14.742Z,75.58
2023-01-19T14:56:02.229Z,74.67
2023-01-19T14:58:32.264Z,74.66
2023-01-19T15:00:59.694Z,75.98
2023-01-19T15:03:43.695Z,75.53
2023-01-19T15:06:15.108Z,75.75
2023-01-19T15:08:42.203Z,75.86
2023-01-19T15:11:35.363Z,76.04
2023-01-19T15:14:03.123Z,76.21
2023-01-19T15:16:33.122Z,76.06
2023-01-19T15:19:00.068Z,76.46
2023-01-19T15:21:26.964Z,75.54
2023-01-19T15:23:58.446Z,75.68
2023-01-19T15:26:26.922Z,77.83
2023-01-19T15:28:55.664Z,79.68
2023-01-19T15:31:23.916Z,79.19
2023-01-19T15:33:50.561Z,79.35
2023-01-19T15:36:19.290Z,78.14
2023-01-19T15:38:46.928Z,78.12
2023-01-19T15:41:24.806Z,80.22
2023-01-19T15:43:51.829Z,78.10
2023-01-19T15:46:22.136Z,78.71
2023-01-19T15:51:23.293Z,77.51
2023-01-19T15:53:50.454Z,78.05
2023-01-19T15:56:25.674Z,80.08
2023-01-19T15:58:53.715Z,78.20
2023-01-19T16:01:23.410Z,77.51
2023-01-19T16:03:50.827Z,76.98
2023-01-19T16:06:18.058Z,76.99
2023-01-19T16:08:45.091Z,77.14
2023-01-19T16:11:15.135Z,76.78
2023-01-19T16:13:46.152Z,78.10
2023-01-19T16:16:16.278Z,77.88
2023-01-19T16:18:43.069Z,78.15
2023-01-19T16:21:09.740Z,79.99
2023-01-19T16:23:36.312Z,78.67
2023-01-19T16:28:46.285Z,77.49
2023-01-19T16:31:14.145Z,77.83
2023-01-19T16:33:40.761Z,77.68
2023-01-19T16:36:25.257Z,77.16
2023-01-19T16:38:52.395Z,77.01
2023-01-19T16:41:19.230Z,78.20
2023-01-19T16:43:51.578Z,78.82
2023-01-19T16:46:21.654Z,79.41
2023-01-19T16:48:48.328Z,79.43
2023-01-19T16:51:15.171Z,77.86
2023-01-19T16:53:41.949Z,78.66
2023-01-19T16:56:11.162Z,78.61
2023-01-19T16:58:38.519Z,78.54
2023-01-19T17:01:09.101Z,78.77
2023-01-19T17:03:36.409Z,78.87
2023-01-19T17:06:03.055Z,77.99
2023-01-19T17:08:29.642Z,77.29
2023-01-19T17:10:56.408Z,77.21
2023-01-19T17:13:23.097Z,77.59
2023-01-19T17:15:49.877Z,77.23
2023-01-19T17:18:16.406Z,78.69
2023-01-19T17:20:42.946Z,81.51
2023-01-19T17:23:09.497Z,82.32
2023-01-19T17:25:36.069Z,81.67
2023-01-19T17:28:02.670Z,81.69
2023-01-19T17:30:29.350Z,82.06
2023-01-19T17:32:56.149Z,81.65
2023-01-19T17:35:22.678Z,79.83
2023-01-19T17:37:53.653Z,78.69
2023-01-19T17:40:20.333Z,77.47
2023-01-19T17:42:46.944Z,76.23
2023-01-19T17:45:13.540Z,76.41
2023-01-19T17:47:40.337Z,76.92
2023-01-19T17:50:07.171Z,76.78
2023-01-19T17:52:33.706Z,76.70
2023-01-19T17:55:00.552Z,76.12
2023-01-19T17:57:27.937Z,76.43
2023-01-19T17:59:54.650Z,76.62
2023-01-19T18:02:24.521Z,76.11
2023-01-19T18:04:52.408Z,77.04
2023-01-19T18:07:19.358Z,76.43
2023-01-19T18:09:46.123Z,77.12
2023-01-19T18:12:13.106Z,77.71
2023-01-19T18:14:40.505Z,78.37
2023-01-19T18:17:07.449Z,79.06
2023-01-19T18:19:34.139Z,79.30
2023-01-19T18:22:00.838Z,79.24
2023-01-19T18:24:27.595Z,79.17
2023-01-19T18:26:55.720Z,79.69
2023-01-19T18:29:22.504Z,81.09
2023-01-19T18:31:49.086Z,80.26
2023-01-19T18:34:15.891Z,80.15
2023-01-19T18:36:42.582Z,79.85
2023-01-19T18:39:09.582Z,80.75
2023-01-19T18:41:42.343Z,81.00
2023-01-19T18:44:10.212Z,80.99
2023-01-19T18:49:11.224Z,80.39
2023-01-19T18:51:39.657Z,81.22
2023-01-19T18:54:06.374Z,81.23
2023-01-19T18:56:33.011Z,81.23
2023-01-19T18:59:01.102Z,81.93
2023-01-19T19:04:08.355Z,82.05
2023-01-19T19:06:35.913Z,82.60
2023-01-19T19:09:03.490Z,81.96
2023-01-19T19:11:30.268Z,82.82
2023-01-19T19:14:01.669Z,82.74
2023-01-19T19:16:29.746Z,82.67
2023-01-19T19:18:56.609Z,81.59
2023-01-19T19:21:25.534Z,82.09
2023-01-19T19:23:56.723Z,81.87
2023-01-19T19:26:25.452Z,83.10
2023-01-19T19:28:52.061Z,84.35
2023-01-19T19:31:20.969Z,84.01
2023-01-19T19:33:48.831Z,84.02
2023-01-19T19:36:15.572Z,83.58
2023-01-19T19:38:43.005Z,84.21
2023-01-19T19:41:12.782Z,84.74
2023-01-19T19:43:39.593Z,84.55
2023-01-19T19:46:08.433Z,84.84
2023-01-19T19:48:37.578Z,84.57
2023-01-19T19:51:17.976Z,84.99
2023-01-19T19:53:46.384Z,85.26
2023-01-19T19:56:13.613Z,85.51
2023-01-19T19:58:42.215Z,84.72
2023-01-19T20:01:17.067Z,85.14
2023-01-19T20:03:44.048Z,85.32
2023-01-19T20:06:20.738Z,84.96
2023-01-19T20:08:49.045Z,85.93
2023-01-19T20:11:19.375Z,86.05
2023-01-19T20:13:47.652Z,85.42
2023-01-19T20:16:17.933Z,85.64
2023-01-19T20:18:48.657Z,85.81
2023-01-19T20:21:25.751Z,86.12
2023-01-19T20:23:53.473Z,86.33
2023-01-19T20:26:25.173Z,85.59
2023-01-19T20:28:52.142Z,85.23
2023-01-19T20:31:24.664Z,84.60
2023-01-19T20:33:52.233Z,84.13
2023-01-19T20:36:19.172Z,83.50
2023-01-19T20:38:45.735Z,82.83
2023-01-19T20:41:13.071Z,82.96
2023-01-19T20:43:39.876Z,83.54
2023-01-19T20:46:06.514Z,82.92
2023-01-19T20:48:33.042Z,83.30
2023-01-19T20:51:08.399Z,82.88
2023-01-19T20:53:35.261Z,83.13
2023-01-19T20:56:11.448Z,84.02
2023-01-19T20:58:38.011Z,83.90
2023-01-19T21:01:16.844Z,83.78
2023-01-19T21:03:43.729Z,83.88
2023-01-19T21:06:10.972Z,85.33
2023-01-19T21:08:37.975Z,84.95
2023-01-19T21:11:05.790Z,84.60
2023-01-19T21:13:33.071Z,83.91
2023-01-19T21:16:00.087Z,83.30
2023-01-19T21:18:28.081Z,81.65
2023-01-19T21:20:55.691Z,81.16
2023-01-19T21:23:22.264Z,81.12
2023-01-19T21:25:53.773Z,81.53
2023-01-19T21:28:21.774Z,81.04
2023-01-19T21:30:48.640Z,81.49
2023-01-19T21:33:16.064Z,81.89
2023-01-19T21:35:56.705Z,83.35
2023-01-19T21:38:26.926Z,83.07
2023-01-19T21:40:54.564Z,83.72
2023-01-19T21:43:21.614Z,83.30
2023-01-19T21:45:49.009Z,82.39
2023-01-19T21:48:16.951Z,82.89
2023-01-19T21:50:43.638Z,83.54
2023-01-19T21:53:11.658Z,82.79
2023-01-19T21:55:42.962Z,83.43
2023-01-19T21:58:09.648Z,84.08
2023-01-19T22:00:36.290Z,82.85
2023-01-19T22:03:04.518Z,82.42
2023-01-19T22:05:36.696Z,83.13
2023-01-19T22:08:04.437Z,82.61
2023-01-19T22:10:30.997Z,82.50
2023-01-19T22:12:57.668Z,83.00
2023-01-19T22:15:24.204Z,83.65
2023-01-19T22:17:50.778Z,83.34
2023-01-19T22:20:17.408Z,82.79
2023-01-19T22:22:43.945Z,82.71
2023-01-19T22:25:10.482Z,82.82
2023-01-19T22:27:37.571Z,82.07
2023-01-19T22:30:04.504Z,81.63
2023-01-19T22:32:31.448Z,82.66
2023-01-19T22:34:58.028Z,81.85
2023-01-19T22:37:24.713Z,82.19
2023-01-19T22:39:53.246Z,82.27
2023-01-19T22:42:19.764Z,82.83
2023-01-19T22:44:46.986Z,82.64
2023-01-19T22:47:13.587Z,82.70
2023-01-19T22:49:40.793Z,83.30
2023-01-19T22:52:07.552Z,83.09
2023-01-19T22:54:34.198Z,83.36
2023-01-19T22:57:00.812Z,82.99
2023-01-19T22:59:27.523Z,82.84
2023-01-19T23:01:54.218Z,83.21
2023-01-19T23:04:20.976Z,83.57
2023-01-19T23:06:50.585Z,83.63
2023-01-19T23:09:17.851Z,83.81
2023-01-19T23:11:48.580Z,83.71
2023-01-19T23:14:17.223Z,84.58
2023-01-19T23:16:44.268Z,83.84
2023-01-19T23:19:12.328Z,83.92
2023-01-19T23:21:38.934Z,84.13
2023-01-19T23:24:05.773Z,84.59
2023-01-19T23:26:38.254Z,84.86
2023-01-19T23:29:08.615Z,84.85
2023-01-19T23:31:36.789Z,83.68
2023-01-19T23:34:08.908Z,84.43
2023-01-19T23:36:37.649Z,85.60
2023-01-19T23:39:07.277Z,85.06
2023-01-19T23:41:34.715Z,83.89
2023-01-19T23:44:01.964Z,84.28
2023-01-19T23:49:03.179Z,83.96
2023-01-19T23:51:31.398Z,83.47
2023-01-19T23:53:58.647Z,83.28
2023-01-19T23:56:30.565Z,83.43
2023-01-19T23:59:04.141Z,83.26
